createdAt,value
2017-08-14T00:00:31.025Z,101844.88
2017-08-14T00:03:03.152Z,101842.74
2017-08-14T00:05:31.860Z,101856.66
2017-08-14T00:08:00.551Z,101853.67
2017-08-14T00:10:29.296Z,101858.06
2017-08-14T00:13:01.987Z,101857.82
2017-08-14T00:15:32.103Z,101858.66
2017-08-14T00:18:00.789Z,101867.91
2017-08-14T00:20:29.480Z,101861.16
2017-08-14T00:23:00.260Z,101860.30
2017-08-14T00:25:28.910Z,101871.91
2017-08-14T00:27:57.668Z,101867.80
2017-08-14T00:30:26.370Z,101867.80
2017-08-14T00:32:55.005Z,101869.70
2017-08-14T00:35:23.718Z,101867.68
2017-08-14T00:37:54.115Z,101869.42
2017-08-14T00:40:22.804Z,101867.80
2017-08-14T00:42:51.561Z,101864.80
2017-08-14T00:45:20.265Z,101871.42
2017-08-14T00:47:49.015Z,101873.16
2017-08-14T00:50:17.792Z,101874.22
2017-08-14T00:52:47.287Z,101869.47
2017-08-14T00:55:15.995Z,101867.84
2017-08-14T00:57:44.804Z,101872.17
2017-08-14T01:00:13.164Z,101867.90
2017-08-14T01:02:42.155Z,101865.10
2017-08-14T01:05:11.762Z,101865.99
2017-08-14T01:07:41.260Z,101865.20
2017-08-14T01:10:10.084Z,101867.91
2017-08-14T01:12:38.873Z,101865.50
2017-08-14T01:15:08.555Z,101863.84
2017-08-14T01:17:37.292Z,101866.84
2017-08-14T01:20:06.901Z,101868.23
2017-08-14T01:22:35.616Z,101868.34
2017-08-14T01:25:04.365Z,101862.88
2017-08-14T01:27:33.047Z,101863.35
2017-08-14T01:30:02.772Z,101861.39
2017-08-14T01:32:31.711Z,101865.25
2017-08-14T01:35:00.477Z,101872.56
2017-08-14T01:37:29.211Z,101863.93
2017-08-14T01:39:57.860Z,101861.10
2017-08-14T01:42:26.298Z,101867.16
2017-08-14T01:44:55.003Z,101860.52
2017-08-14T01:47:24.594Z,101867.81
2017-08-14T01:49:53.310Z,101863.66
2017-08-14T01:52:22.022Z,101870.04
2017-08-14T01:54:50.685Z,101869.64
2017-08-14T01:57:19.454Z,101865.41
2017-08-14T01:59:48.284Z,101864.70
2017-08-14T02:02:16.995Z,101866.44
2017-08-14T02:04:45.657Z,101865.27
2017-08-14T02:07:14.473Z,101860.51
2017-08-14T02:09:43.209Z,101864.09
2017-08-14T02:12:11.883Z,101863.77
2017-08-14T02:14:40.452Z,101862.93
2017-08-14T02:17:09.143Z,101855.73
2017-08-14T02:19:37.660Z,101849.89
2017-08-14T02:22:06.368Z,101853.27
2017-08-14T02:24:35.030Z,101858.53
2017-08-14T02:27:03.751Z,101853.05
2017-08-14T02:29:32.563Z,101856.58
2017-08-14T02:32:01.263Z,101852.09
2017-08-14T02:34:29.994Z,101854.91
2017-08-14T02:36:58.706Z,101856.68
2017-08-14T02:39:27.363Z,101853.73
2017-08-14T02:41:56.146Z,101850.87
2017-08-14T02:44:24.873Z,101855.34
2017-08-14T02:46:53.578Z,101856.16
2017-08-14T02:49:22.300Z,101853.09
2017-08-14T02:51:51.217Z,101844.99
2017-08-14T02:54:19.988Z,101854.52
2017-08-14T02:56:48.681Z,101852.47
2017-08-14T02:59:17.391Z,101848.70
2017-08-14T03:01:46.169Z,101844.51
2017-08-14T03:04:15.790Z,101855.67
2017-08-14T03:06:45.880Z,101850.16
2017-08-14T03:09:14.651Z,101845.50
2017-08-14T03:11:44.255Z,101847.31
2017-08-14T03:14:13.091Z,101845.19
2017-08-14T03:16:41.807Z,101854.69
2017-08-14T03:19:10.565Z,101851.77
2017-08-14T03:21:39.386Z,101857.73
2017-08-14T03:24:08.102Z,101859.95
2017-08-14T03:26:37.181Z,101858.66
2017-08-14T03:29:05.961Z,101864.27
2017-08-14T03:31:34.688Z,101866.13
2017-08-14T03:34:03.509Z,101866.58
2017-08-14T03:36:33.148Z,101868.78
2017-08-14T03:39:02.047Z,101866.68
2017-08-14T03:41:30.698Z,101870.48
2017-08-14T03:43:59.387Z,101868.55
2017-08-14T03:46:28.167Z,101870.23
2017-08-14T03:48:57.870Z,101867.34
2017-08-14T03:51:26.586Z,101876.34
2017-08-14T03:53:55.266Z,101872.50
2017-08-14T03:56:24.007Z,101873.94
2017-08-14T03:58:53.160Z,101874.25
2017-08-14T04:01:22.178Z,101875.22
2017-08-14T04:03:50.939Z,101878.55
2017-08-14T04:06:19.585Z,101878.66
2017-08-14T04:08:47.871Z,101880.98
2017-08-14T04:14:30.715Z,101881.94
2017-08-14T04:17:08.402Z,101883.05
2017-08-14T04:19:37.236Z,101886.92
2017-08-14T04:22:05.907Z,101885.23
2017-08-14T04:24:34.634Z,101889.55
2017-08-14T04:27:03.466Z,101891.23
2017-08-14T04:29:32.290Z,101894.33
2017-08-14T04:32:02.678Z,101889.53
2017-08-14T04:34:31.383Z,101887.87
2017-08-14T04:37:00.234Z,101893.40
2017-08-14T04:39:29.098Z,101885.26
2017-08-14T04:41:58.509Z,101890.10
2017-08-14T04:44:27.275Z,101889.53
2017-08-14T04:46:57.027Z,101887.14
2017-08-14T04:49:26.049Z,101891.36
2017-08-14T04:51:54.909Z,101896.87
2017-08-14T04:54:29.227Z,101900.84
2017-08-14T04:57:01.042Z,101902.06
2017-08-14T04:59:30.788Z,101896.78
2017-08-14T05:01:59.647Z,101896.91
2017-08-14T05:04:35.582Z,101899.45
2017-08-14T05:07:15.504Z,101896.76
2017-08-14T05:09:44.215Z,101898.16
2017-08-14T05:12:13.170Z,101900.41
2017-08-14T05:14:55.760Z,101902.71
2017-08-14T05:17:24.483Z,101897.97
2017-08-14T05:19:53.502Z,101903.50
2017-08-14T05:22:23.079Z,101898.78
2017-08-14T05:24:52.075Z,101902.66
2017-08-14T05:27:21.050Z,101904.23
2017-08-14T05:29:49.903Z,101901.22
2017-08-14T05:32:18.375Z,101905.86
2017-08-14T05:34:47.113Z,101905.84
2017-08-14T05:37:16.071Z,101908.84
2017-08-14T05:39:45.799Z,101913.61
2017-08-14T05:42:14.625Z,101908.84
2017-08-14T05:44:43.280Z,101910.84
2017-08-14T05:47:12.257Z,101910.87
2017-08-14T05:49:41.918Z,101913.25
2017-08-14T05:52:10.611Z,101923.19
2017-08-14T05:54:39.384Z,101923.55
2017-08-14T05:57:08.381Z,101922.67
2017-08-14T05:59:37.196Z,101922.87
2017-08-14T06:02:06.663Z,101920.20
2017-08-14T06:04:35.789Z,101930.78
2017-08-14T06:07:04.946Z,101929.30
2017-08-14T06:09:34.103Z,101927.78
2017-08-14T06:12:03.710Z,101929.60
2017-08-14T06:14:33.561Z,101928.72
2017-08-14T06:17:02.354Z,101930.61
2017-08-14T06:19:31.161Z,101931.73
2017-08-14T06:21:59.908Z,101932.36
2017-08-14T06:24:28.800Z,101930.48
2017-08-14T06:26:58.516Z,101933.20
2017-08-14T06:29:27.195Z,101932.49
2017-08-14T06:31:55.944Z,101935.21
2017-08-14T06:34:24.701Z,101933.77
2017-08-14T06:36:53.452Z,101943.18
2017-08-14T06:39:23.048Z,101943.38
2017-08-14T06:41:52.666Z,101942.64
2017-08-14T06:44:21.257Z,101956.11
2017-08-14T06:46:50.022Z,101953.27
2017-08-14T06:49:18.690Z,101949.14
2017-08-14T06:51:47.388Z,101950.19
2017-08-14T06:54:16.158Z,101955.98
2017-08-14T06:56:44.854Z,101956.58
2017-08-14T06:59:13.546Z,101958.90
2017-08-14T07:01:43.228Z,101952.66
2017-08-14T07:04:11.997Z,101948.87
2017-08-14T07:06:40.653Z,101953.28
2017-08-14T07:09:09.348Z,101952.61
2017-08-14T07:11:38.061Z,101949.30
2017-08-14T07:14:06.784Z,101946.39
2017-08-14T07:16:35.449Z,101951.63
2017-08-14T07:19:04.142Z,101953.48
2017-08-14T07:21:32.829Z,101946.65
2017-08-14T07:24:01.527Z,101945.05
2017-08-14T07:26:30.252Z,101949.41
2017-08-14T07:28:58.910Z,101951.26
2017-08-14T07:31:27.593Z,101949.56
2017-08-14T07:33:56.415Z,101953.56
2017-08-14T07:36:25.069Z,101950.17
2017-08-14T07:38:53.823Z,101949.88
2017-08-14T07:41:22.484Z,101946.48
2017-08-14T07:43:51.209Z,101953.44
2017-08-14T07:46:19.898Z,101952.16
2017-08-14T07:48:48.652Z,101948.79
2017-08-14T07:51:17.597Z,101951.38
2017-08-14T07:53:46.305Z,101950.69
2017-08-14T07:56:14.971Z,101952.05
2017-08-14T07:58:43.709Z,101954.70
2017-08-14T08:01:12.453Z,101954.62
2017-08-14T08:03:41.122Z,101952.55
2017-08-14T08:06:09.775Z,101946.95
2017-08-14T08:08:38.514Z,101953.38
2017-08-14T08:11:07.198Z,101952.83
2017-08-14T08:13:35.930Z,101949.34
2017-08-14T08:16:04.621Z,101951.70
2017-08-14T08:18:33.289Z,101949.05
2017-08-14T08:21:02.025Z,101955.39
2017-08-14T08:23:30.778Z,101953.48
2017-08-14T08:25:59.461Z,101952.92
2017-08-14T08:28:28.227Z,101956.38
2017-08-14T08:30:56.939Z,101956.05
2017-08-14T08:33:25.661Z,101960.41
2017-08-14T08:35:54.382Z,101956.73
2017-08-14T08:38:23.126Z,101962.89
2017-08-14T08:40:52.476Z,101954.74
2017-08-14T08:43:21.008Z,101962.56
2017-08-14T08:45:49.771Z,101966.41
2017-08-14T08:48:18.466Z,101967.88
2017-08-14T08:50:47.255Z,101962.52
2017-08-14T08:53:15.970Z,101956.58
2017-08-14T08:55:44.640Z,101960.41
2017-08-14T08:58:13.360Z,101960.36
2017-08-14T09:00:42.009Z,101951.17
2017-08-14T09:03:10.746Z,101954.25
2017-08-14T09:05:40.308Z,101950.88
2017-08-14T09:08:09.043Z,101944.23
2017-08-14T09:10:37.752Z,101938.68
2017-08-14T09:13:06.438Z,101928.64
2017-08-14T09:15:35.267Z,101938.28
2017-08-14T09:18:03.932Z,101935.84
2017-08-14T09:20:32.623Z,101936.49
2017-08-14T09:23:04.650Z,101938.39
2017-08-14T09:25:33.490Z,101933.42
2017-08-14T09:28:02.969Z,101934.14
2017-08-14T09:30:31.626Z,101930.40
2017-08-14T09:33:01.631Z,101926.75
2017-08-14T09:35:30.333Z,101925.33
2017-08-14T09:37:59.086Z,101925.67
2017-08-14T09:40:27.766Z,101923.06
2017-08-14T09:42:56.449Z,101920.08
2017-08-14T09:45:26.383Z,101924.59
2017-08-14T09:47:55.063Z,101923.73
2017-08-14T09:50:23.748Z,101922.72
2017-08-14T09:52:52.464Z,101924.64
2017-08-14T09:55:21.169Z,101921.09
2017-08-14T09:57:50.872Z,101913.59
2017-08-14T10:00:19.616Z,101919.47
2017-08-14T10:02:48.352Z,101910.83
2017-08-14T10:05:17.080Z,101910.96
2017-08-14T10:07:45.847Z,101908.25
2017-08-14T10:10:14.517Z,101901.69
2017-08-14T10:12:44.195Z,101903.52
2017-08-14T10:15:12.914Z,101910.95
2017-08-14T10:17:41.579Z,101903.34
2017-08-14T10:20:10.304Z,101896.38
2017-08-14T10:22:39.009Z,101902.46
2017-08-14T10:25:08.729Z,101897.90
2017-08-14T10:27:37.467Z,101895.30
2017-08-14T10:30:06.199Z,101898.01
2017-08-14T10:32:34.952Z,101891.69
2017-08-14T10:35:03.681Z,101892.83
2017-08-14T10:37:32.416Z,101892.50
2017-08-14T10:40:01.197Z,101886.10
2017-08-14T10:42:29.971Z,101889.70
2017-08-14T10:44:59.492Z,101889.54
2017-08-14T10:47:28.194Z,101886.05
2017-08-14T10:49:56.892Z,101889.51
2017-08-14T10:52:25.665Z,101887.35
2017-08-14T10:54:54.382Z,101885.62
2017-08-14T10:57:23.125Z,101887.52
2017-08-14T10:59:51.810Z,101885.27
2017-08-14T11:02:20.604Z,101893.55
2017-08-14T11:04:49.326Z,101883.12
2017-08-14T11:07:17.984Z,101880.75
2017-08-14T11:09:46.636Z,101870.84
2017-08-14T11:12:16.191Z,101874.95
2017-08-14T11:14:45.147Z,101874.97
2017-08-14T11:17:13.796Z,101872.48
2017-08-14T11:19:42.984Z,101867.75
2017-08-14T11:22:11.638Z,101872.59
2017-08-14T11:24:40.359Z,101867.81
2017-08-14T11:27:08.746Z,101862.96
2017-08-14T11:29:37.802Z,101855.64
2017-08-14T11:32:06.523Z,101858.47
2017-08-14T11:34:35.222Z,101855.28
2017-08-14T11:37:04.008Z,101856.62
2017-08-14T11:39:32.756Z,101850.52
2017-08-14T11:42:01.394Z,101850.57
2017-08-14T11:44:30.732Z,101845.19
2017-08-14T11:46:59.383Z,101841.75
2017-08-14T11:49:28.140Z,101838.91
2017-08-14T11:51:56.890Z,101836.27
2017-08-14T11:54:25.633Z,101836.52
2017-08-14T11:56:54.318Z,101840.59
2017-08-14T11:59:23.068Z,101840.05
2017-08-14T12:01:51.835Z,101836.06
2017-08-14T12:04:20.591Z,101834.95
2017-08-14T12:06:49.293Z,101834.13
2017-08-14T12:09:17.822Z,101833.47
2017-08-14T12:11:46.541Z,101832.44
2017-08-14T12:14:15.187Z,101832.50
2017-08-14T12:16:43.919Z,101828.35
2017-08-14T12:19:12.611Z,101830.11
2017-08-14T12:21:41.459Z,101833.66
2017-08-14T12:24:10.122Z,101826.63
2017-08-14T12:26:38.828Z,101833.57
2017-08-14T12:29:07.585Z,101834.64
2017-08-14T12:31:36.253Z,101824.81
2017-08-14T12:34:04.986Z,101824.75
2017-08-14T12:36:33.664Z,101821.63
2017-08-14T12:39:02.357Z,101824.98
2017-08-14T12:41:31.094Z,101826.31
2017-08-14T12:43:59.752Z,101830.53
2017-08-14T12:46:28.468Z,101822.41
2017-08-14T12:48:57.186Z,101815.70
2017-08-14T12:51:25.861Z,101819.86
2017-08-14T12:53:54.575Z,101812.38
2017-08-14T12:56:23.251Z,101811.66
2017-08-14T12:58:52.066Z,101811.59
2017-08-14T13:01:20.748Z,101815.27
2017-08-14T13:03:49.489Z,101812.66
2017-08-14T13:06:18.170Z,101805.01
2017-08-14T13:08:46.829Z,101797.97
2017-08-14T13:11:15.587Z,101799.72
2017-08-14T13:13:45.165Z,101796.67
2017-08-14T13:16:13.806Z,101794.06
2017-08-14T13:18:43.466Z,101797.09
2017-08-14T13:21:12.136Z,101795.64
2017-08-14T13:23:40.871Z,101792.61
2017-08-14T13:26:09.680Z,101787.19
2017-08-14T13:28:39.146Z,101791.34
2017-08-14T13:31:07.849Z,101787.22
2017-08-14T13:33:36.558Z,101783.05
2017-08-14T13:36:05.317Z,101786.91
2017-08-14T13:38:34.039Z,101780.23
2017-08-14T13:41:02.771Z,101775.52
2017-08-14T13:43:31.542Z,101776.76
2017-08-14T13:46:00.212Z,101776.70
2017-08-14T13:48:28.947Z,101775.95
2017-08-14T13:50:57.660Z,101779.69
2017-08-14T13:53:26.404Z,101778.45
2017-08-14T13:55:55.255Z,101774.52
2017-08-14T13:58:23.964Z,101772.89
2017-08-14T14:00:52.630Z,101765.44
2017-08-14T14:03:21.405Z,101757.86
2017-08-14T14:05:50.243Z,101760.77
2017-08-14T14:08:18.920Z,101758.32
2017-08-14T14:10:47.701Z,101759.70
2017-08-14T14:13:16.344Z,101761.27
2017-08-14T14:15:45.075Z,101755.61
2017-08-14T14:18:13.827Z,101749.14
2017-08-14T14:20:42.791Z,101747.29
2017-08-14T14:23:11.486Z,101747.84
2017-08-14T14:25:40.192Z,101744.75
2017-08-14T14:28:08.864Z,101746.55
2017-08-14T14:30:37.576Z,101741.32
2017-08-14T14:33:06.284Z,101744.30
2017-08-14T14:35:35.008Z,101742.70
2017-08-14T14:38:03.714Z,101741.31
2017-08-14T14:40:32.386Z,101733.38
2017-08-14T14:43:02.638Z,101734.00
2017-08-14T14:45:31.353Z,101731.86
2017-08-14T14:48:00.772Z,101732.99
2017-08-14T14:50:29.478Z,101730.02
2017-08-14T14:53:04.790Z,101723.94
2017-08-14T14:55:34.514Z,101722.35
2017-08-14T14:58:03.256Z,101724.42
2017-08-14T15:00:31.961Z,101714.91
2017-08-14T15:03:02.583Z,101708.91
2017-08-14T15:05:31.293Z,101706.86
2017-08-14T15:08:00.037Z,101713.55
2017-08-14T15:10:28.720Z,101700.59
2017-08-14T15:13:00.759Z,101701.25
2017-08-14T15:15:29.434Z,101701.56
2017-08-14T15:20:38.030Z,101697.04
2017-08-14T15:23:06.917Z,101692.42
2017-08-14T15:25:35.967Z,101691.28
2017-08-14T15:28:05.415Z,101691.52
2017-08-14T15:30:34.368Z,101685.90
2017-08-14T15:33:04.981Z,101679.17
2017-08-14T15:35:33.895Z,101677.27
2017-08-14T15:38:02.581Z,101679.62
2017-08-14T15:40:31.320Z,101673.31
2017-08-14T15:43:03.130Z,101676.86
2017-08-14T15:45:31.876Z,101671.20
2017-08-14T15:50:24.121Z,101670.27
2017-08-14T15:53:02.889Z,101671.47
2017-08-14T15:57:33.993Z,101661.70
2017-08-14T16:00:09.485Z,101665.11
2017-08-14T16:02:44.806Z,101659.88
2017-08-14T16:05:20.394Z,101655.08
2017-08-14T16:07:56.050Z,101657.48
2017-08-14T16:10:31.841Z,101658.18
2017-08-14T16:13:07.206Z,101660.11
2017-08-14T16:15:43.749Z,101661.78
2017-08-14T16:18:19.579Z,101661.41
2017-08-14T16:20:55.260Z,101659.99
2017-08-14T16:23:28.479Z,101658.39
2017-08-14T16:26:01.029Z,101653.56
2017-08-14T16:28:34.347Z,101658.10
2017-08-14T16:31:07.132Z,101654.41
2017-08-14T16:33:40.177Z,101655.14
2017-08-14T16:36:13.599Z,101653.83
2017-08-14T16:38:46.883Z,101658.64
2017-08-14T16:41:20.302Z,101652.96
2017-08-14T16:43:53.863Z,101647.20
2017-08-14T16:46:26.966Z,101642.23
2017-08-14T16:48:59.426Z,101636.84
2017-08-14T16:51:32.825Z,101635.98
2017-08-14T16:54:06.175Z,101635.19
2017-08-14T16:56:39.588Z,101629.63
2017-08-14T16:59:13.760Z,101631.07
2017-08-14T17:01:46.272Z,101629.59
2017-08-14T17:04:19.683Z,101621.78
2017-08-14T17:06:55.370Z,101621.50
2017-08-14T17:12:22.588Z,101607.84
2017-08-14T17:14:56.171Z,101607.66
2017-08-14T17:17:31.969Z,101604.89
2017-08-14T17:20:04.711Z,101607.41
2017-08-14T17:22:37.981Z,101606.04
2017-08-14T17:25:12.415Z,101603.75
2017-08-14T17:27:50.016Z,101608.62
2017-08-14T17:30:26.215Z,101605.22
2017-08-14T17:35:38.990Z,101604.00
2017-08-14T17:38:15.708Z,101605.23
2017-08-14T17:40:50.032Z,101606.63
2017-08-14T17:43:22.853Z,101605.25
2017-08-14T17:45:56.551Z,101603.64
2017-08-14T17:48:29.361Z,101606.95
2017-08-14T17:51:01.969Z,101605.85
2017-08-14T17:53:35.406Z,101608.80
2017-08-14T17:56:08.644Z,101605.38
2017-08-14T17:58:41.957Z,101606.61
2017-08-14T18:01:15.260Z,101598.31
2017-08-14T18:03:49.746Z,101595.63
2017-08-14T18:06:32.470Z,101586.73
2017-08-14T18:09:10.702Z,101589.77
2017-08-14T18:11:51.838Z,101600.42
2017-08-14T18:14:29.543Z,101588.52
2017-08-14T18:17:05.332Z,101593.77
2017-08-14T18:19:57.794Z,101594.12
2017-08-14T18:22:42.217Z,101595.88
2017-08-14T18:28:14.048Z,101595.89
2017-08-14T18:30:53.840Z,101599.89
2017-08-14T18:33:33.035Z,101595.20
2017-08-14T18:36:14.791Z,101593.33
2017-08-14T18:38:53.453Z,101595.64
2017-08-14T18:44:10.966Z,101602.27
2017-08-14T18:46:56.324Z,101602.73
2017-08-14T18:49:38.193Z,101604.88
2017-08-14T18:52:22.139Z,101601.78
2017-08-14T18:55:06.791Z,101602.69
2017-08-14T18:57:48.709Z,101599.30
2017-08-14T19:00:23.310Z,101600.55
2017-08-14T19:02:56.810Z,101604.02
2017-08-14T19:05:32.394Z,101605.77
2017-08-14T19:08:10.978Z,101604.39
2017-08-14T19:10:56.663Z,101608.72
2017-08-14T19:13:39.341Z,101609.14
2017-08-14T19:16:18.523Z,101609.64
2017-08-14T19:21:51.433Z,101610.19
2017-08-14T19:30:13.691Z,101612.95
2017-08-14T19:32:58.256Z,101609.53
2017-08-14T19:35:42.312Z,101608.17
2017-08-14T19:38:26.250Z,101609.84
2017-08-14T19:41:10.272Z,101609.37
2017-08-14T19:43:48.387Z,101611.03
2017-08-14T19:46:32.386Z,101606.98
2017-08-14T19:49:20.421Z,101605.59
2017-08-14T19:52:03.705Z,101609.47
2017-08-14T19:54:37.112Z,101602.92
2017-08-14T19:57:10.722Z,101602.22
2017-08-14T19:59:43.996Z,101602.59
2017-08-14T20:02:17.423Z,101605.45
2017-08-14T20:04:50.744Z,101602.67
2017-08-14T20:07:23.959Z,101605.53
2017-08-14T20:09:58.016Z,101603.33
2017-08-14T20:12:30.818Z,101601.82
2017-08-14T20:15:03.911Z,101600.67
2017-08-14T20:17:37.168Z,101597.99
2017-08-14T20:20:14.594Z,101590.45
2017-08-14T20:22:48.097Z,101601.13
2017-08-14T20:25:21.380Z,101595.31
2017-08-14T20:27:55.611Z,101595.98
2017-08-14T20:30:29.051Z,101598.84
2017-08-14T20:33:04.257Z,101598.23
2017-08-14T20:35:36.798Z,101599.84
2017-08-14T20:38:10.223Z,101600.89
2017-08-14T20:40:43.642Z,101599.45
2017-08-14T20:43:16.943Z,101593.27
2017-08-14T20:45:50.272Z,101590.78
2017-08-14T20:48:23.511Z,101591.35
2017-08-14T20:50:56.788Z,101592.59
2017-08-14T20:53:30.168Z,101594.01
2017-08-14T20:56:03.491Z,101592.23
2017-08-14T20:58:36.436Z,101592.53
2017-08-14T21:01:14.612Z,101594.93
2017-08-14T21:03:51.737Z,101586.51
2017-08-14T21:06:27.445Z,101591.55
2017-08-14T21:09:03.006Z,101583.96
2017-08-14T21:11:39.371Z,101581.61
2017-08-14T21:14:16.088Z,101581.36
2017-08-14T21:16:51.138Z,101583.38
2017-08-14T21:19:23.912Z,101576.20
2017-08-14T21:21:57.394Z,101574.27
2017-08-14T21:24:30.845Z,101574.33
2017-08-14T21:27:03.877Z,101574.99
2017-08-14T21:29:37.284Z,101568.70
2017-08-14T21:32:10.401Z,101568.45
2017-08-14T21:34:44.355Z,101566.15
2017-08-14T21:37:17.156Z,101564.53
2017-08-14T21:39:50.530Z,101566.02
2017-08-14T21:42:23.891Z,101562.81
2017-08-14T21:44:57.752Z,101560.31
2017-08-14T21:47:30.817Z,101559.06
2017-08-14T21:50:03.912Z,101556.81
2017-08-14T21:52:37.169Z,101549.28
2017-08-14T21:55:10.551Z,101550.62
2017-08-14T21:57:43.974Z,101555.41
2017-08-14T22:00:17.301Z,101553.80
2017-08-14T22:02:50.613Z,101551.81
2017-08-14T22:05:23.842Z,101552.65
2017-08-14T22:07:57.168Z,101544.91
2017-08-14T22:10:30.369Z,101550.58
2017-08-14T22:13:03.991Z,101545.27
2017-08-14T22:15:37.146Z,101544.85
2017-08-14T22:18:10.528Z,101539.34
2017-08-14T22:20:43.907Z,101545.83
2017-08-14T22:23:17.101Z,101547.69
2017-08-14T22:25:50.287Z,101544.38
2017-08-14T22:28:23.735Z,101541.31
2017-08-14T22:30:57.034Z,101536.27
2017-08-14T22:33:30.375Z,101537.24
2017-08-14T22:36:03.887Z,101537.34
2017-08-14T22:38:37.202Z,101534.80
2017-08-14T22:41:10.352Z,101534.23
2017-08-14T22:43:43.756Z,101535.27
2017-08-14T22:46:17.109Z,101535.35
2017-08-14T22:48:50.467Z,101526.02
2017-08-14T22:51:23.801Z,101525.66
2017-08-14T22:53:57.024Z,101524.03
2017-08-14T22:56:30.402Z,101520.75
2017-08-14T22:59:04.062Z,101516.59
2017-08-14T23:01:37.252Z,101516.13
2017-08-14T23:04:10.680Z,101507.57
2017-08-14T23:06:43.884Z,101507.52
2017-08-14T23:09:17.234Z,101505.30
2017-08-14T23:11:50.639Z,101502.84
2017-08-14T23:14:23.672Z,101496.69
2017-08-14T23:16:57.150Z,101496.64
2017-08-14T23:19:30.923Z,101493.68
2017-08-14T23:22:03.570Z,101488.86
2017-08-14T23:24:37.141Z,101484.83
2017-08-14T23:27:10.727Z,101476.86
2017-08-14T23:29:43.626Z,101480.66
2017-08-14T23:32:19.293Z,101476.56
2017-08-14T23:35:07.316Z,101469.20
2017-08-14T23:37:56.061Z,101474.19
2017-08-14T23:40:47.024Z,101459.41
2017-08-14T23:49:30.849Z,101452.06
2017-08-14T23:52:22.320Z,101448.91
2017-08-14T23:58:05.925Z,101444.86
